KGED/GED METAR and TAF weather

Enter ICAO airport designator
Station Type Date Time Source
KGED METAR 2018/12/10 12:54 UTC NOAA

KGED 101254Z AUTO 02011G17KT 10SM CLR 01/M06 A3008 RMK AO2 SLP187 T00111056


Station Type Date Time Source
KGED Decoded METAR 2018/12/10 12:54 UTC NOAA

GEORGETOWN SUSSEX CO AIRPORT , DE, United States (KGED) 38-41N 075-22W 19M
Dec 10, 2018 - 07:54 AM EST / 2018.12.10 1254 UTC
Wind: from the NNE (020 degrees) at 13 MPH (11 KT) gusting to 20 MPH (17 KT):0
Visibility: 10 mile(s):0
Sky conditions: clear
Temperature: 34.0 F (1.1 C)
Windchill: 24 F (-4 C):1
Dew Point: 21.9 F (-5.6 C)
Relative Humidity: 60%
Pressure (altimeter): 30.08 in. Hg (1018 hPa)
ob: KGED 101254Z AUTO 02011G17KT 10SM CLR 01/M06 A3008 RMK AO2 SLP187 T00111056
cycle: 13

Station Type Date Time Source
KGED TAF UTC NOAA

Error!


Example: see airport list